createdAt,value
2022-11-24T00:01:07.605Z,22.02
2022-11-24T00:03:34.671Z,26.60
2022-11-24T00:06:07.444Z,27.02
2022-11-24T00:08:35.558Z,25.95
2022-11-24T00:11:06.896Z,25.90
2022-11-24T00:13:34.319Z,25.48
2022-11-24T00:16:06.101Z,27.17
2022-11-24T00:18:33.513Z,29.52
2022-11-24T00:21:00.869Z,24.98
2022-11-24T00:23:28.206Z,26.08
2022-11-24T00:25:55.157Z,28.33
2022-11-24T00:28:22.091Z,33.17
2022-11-24T00:30:49.110Z,34.30
2022-11-24T00:33:16.058Z,32.88
2022-11-24T00:35:43.037Z,43.88
2022-11-24T00:38:09.988Z,42.20
2022-11-24T00:40:36.888Z,49.35
2022-11-24T00:43:04.104Z,49.53
2022-11-24T00:45:31.034Z,51.67
2022-11-24T00:47:57.938Z,47.92
2022-11-24T00:50:24.885Z,46.65
2022-11-24T00:52:51.793Z,39.15
2022-11-24T00:55:18.776Z,32.60
2022-11-24T00:57:45.694Z,30.77
2022-11-24T01:00:14.072Z,30.15
2022-11-24T01:02:41.092Z,30.77
2022-11-24T01:05:08.716Z,29.30
2022-11-24T01:07:35.945Z,25.33
2022-11-24T01:10:03.581Z,34.15
2022-11-24T01:12:30.756Z,31.33
2022-11-24T01:14:58.989Z,29.35
2022-11-24T01:17:26.376Z,32.15
2022-11-24T01:19:53.311Z,40.00
2022-11-24T01:22:20.285Z,39.90
2022-11-24T01:24:47.212Z,35.40
2022-11-24T01:27:14.140Z,37.90
2022-11-24T01:29:41.068Z,38.00
2022-11-24T01:32:08.189Z,36.75
2022-11-24T01:34:35.283Z,36.70
2022-11-24T01:37:02.476Z,38.10
2022-11-24T01:39:29.368Z,37.80
2022-11-24T01:41:56.292Z,33.22
2022-11-24T01:44:29.087Z,32.83
2022-11-24T01:47:02.966Z,31.13
2022-11-24T01:49:47.175Z,27.30
2022-11-24T01:52:23.375Z,33.92
2022-11-24T01:54:57.865Z,36.42
2022-11-24T01:57:36.625Z,31.08
2022-11-24T02:00:09.960Z,29.85
2022-11-24T02:02:37.026Z,28.58
2022-11-24T02:05:11.435Z,26.50
2022-11-24T02:07:38.583Z,26.58
2022-11-24T02:10:15.273Z,27.83
2022-11-24T02:12:47.532Z,29.77
2022-11-24T02:15:15.533Z,29.87
2022-11-24T02:17:42.504Z,28.00
2022-11-24T02:20:11.071Z,28.00
2022-11-24T02:22:50.093Z,29.20
2022-11-24T02:25:32.056Z,29.73
2022-11-24T02:28:02.036Z,31.95
2022-11-24T02:30:29.077Z,28.95
2022-11-24T02:32:56.476Z,29.55
2022-11-24T02:35:23.545Z,25.30
2022-11-24T02:37:50.504Z,27.95
2022-11-24T02:40:25.154Z,27.40
2022-11-24T02:42:59.144Z,31.80
2022-11-24T02:45:27.630Z,31.33
2022-11-24T02:47:54.789Z,29.08
2022-11-24T02:50:21.703Z,26.65
2022-11-24T02:52:48.681Z,25.98
2022-11-24T02:55:15.684Z,25.38
2022-11-24T02:57:42.671Z,23.48
2022-11-24T03:00:10.355Z,24.50
2022-11-24T03:02:37.291Z,24.98
2022-11-24T03:05:04.645Z,27.65
2022-11-24T03:07:31.703Z,24.92
2022-11-24T03:09:58.701Z,24.05
2022-11-24T03:12:25.606Z,20.40
2022-11-24T03:14:52.505Z,19.38
2022-11-24T03:17:19.457Z,20.60
2022-11-24T03:19:46.370Z,21.95
2022-11-24T03:22:14.338Z,23.55
2022-11-24T03:24:41.226Z,18.65
2022-11-24T03:27:08.188Z,22.63
2022-11-24T03:29:35.117Z,22.27
2022-11-24T03:32:02.795Z,23.63
2022-11-24T03:34:29.776Z,18.67
2022-11-24T03:36:56.714Z,20.70
2022-11-24T03:39:23.673Z,22.45
2022-11-24T03:41:51.607Z,21.13
2022-11-24T03:44:18.852Z,22.85
2022-11-24T03:46:45.928Z,22.15
2022-11-24T03:49:12.860Z,22.25
2022-11-24T03:51:39.804Z,22.60
2022-11-24T03:54:06.985Z,22.70
2022-11-24T03:56:33.866Z,23.42
2022-11-24T03:59:00.928Z,23.90
2022-11-24T04:01:27.883Z,23.48
2022-11-24T04:03:54.815Z,26.35
2022-11-24T04:06:21.870Z,29.92
2022-11-24T04:08:48.824Z,27.42
2022-11-24T04:11:35.743Z,28.30
2022-11-24T04:14:02.654Z,24.58
2022-11-24T04:16:29.602Z,20.95
2022-11-24T04:18:56.556Z,23.65
2022-11-24T04:21:23.476Z,23.00
2022-11-24T04:23:50.446Z,27.02
2022-11-24T04:26:17.847Z,21.88
2022-11-24T04:28:44.740Z,25.70
2022-11-24T04:31:11.709Z,25.55
2022-11-24T04:33:38.633Z,27.23
2022-11-24T04:36:06.077Z,22.73
2022-11-24T04:39:23.730Z,25.35
2022-11-24T04:41:20.416Z,25.17
2022-11-24T04:43:50.396Z,21.48
2022-11-24T04:46:17.692Z,20.70
2022-11-24T04:48:44.726Z,19.98
2022-11-24T04:51:14.259Z,16.70
2022-11-24T04:53:41.702Z,16.20
2022-11-24T04:56:09.004Z,16.60
2022-11-24T04:58:36.233Z,22.85
2022-11-24T05:01:07.129Z,19.67
2022-11-24T05:03:34.447Z,18.17
2022-11-24T05:06:01.691Z,18.85
2022-11-24T05:08:28.818Z,27.73
2022-11-24T05:10:55.782Z,26.35
2022-11-24T05:13:22.813Z,24.90
2022-11-24T05:15:49.783Z,22.08
2022-11-24T05:18:16.817Z,26.35
2022-11-24T05:20:47.053Z,23.23
2022-11-24T05:23:14.038Z,22.30
2022-11-24T05:25:46.182Z,22.80
2022-11-24T05:28:13.215Z,22.10
2022-11-24T05:30:40.467Z,22.80
2022-11-24T05:33:19.213Z,20.88
2022-11-24T05:35:47.386Z,23.23
2022-11-24T05:38:14.371Z,23.30
2022-11-24T05:40:41.460Z,18.00
2022-11-24T05:43:15.731Z,18.38
2022-11-24T05:45:43.657Z,21.70
2022-11-24T05:48:15.315Z,22.95
2022-11-24T05:50:42.437Z,21.15
2022-11-24T05:53:11.869Z,21.95
2022-11-24T05:55:40.410Z,28.17
2022-11-24T05:58:09.010Z,39.42
2022-11-24T06:00:36.764Z,37.55
2022-11-24T06:03:04.281Z,43.92
2022-11-24T06:05:31.722Z,48.47
2022-11-24T06:08:00.638Z,39.78
2022-11-24T06:10:28.402Z,44.40
2022-11-24T06:12:55.533Z,39.60
2022-11-24T06:15:22.927Z,39.28
2022-11-24T06:17:55.181Z,42.28
2022-11-24T06:20:25.976Z,37.92
2022-11-24T06:25:24.867Z,42.20
2022-11-24T06:27:51.862Z,38.13
2022-11-24T06:30:18.859Z,39.05
2022-11-24T06:32:49.768Z,47.72
2022-11-24T06:35:17.304Z,40.33
2022-11-24T06:37:45.571Z,41.95
2022-11-24T06:40:12.811Z,52.20
2022-11-24T06:42:39.760Z,44.58
2022-11-24T06:45:09.722Z,43.90
2022-11-24T06:47:37.103Z,36.33
2022-11-24T06:50:04.777Z,34.00
2022-11-24T06:52:31.720Z,25.38
2022-11-24T06:54:58.700Z,28.55
2022-11-24T06:57:26.399Z,29.98
2022-11-24T06:59:53.371Z,25.40
2022-11-24T07:02:20.313Z,26.80
2022-11-24T07:04:47.352Z,25.92
2022-11-24T07:07:14.565Z,30.92
2022-11-24T07:09:41.534Z,27.52
2022-11-24T07:12:09.053Z,33.65
2022-11-24T07:14:36.574Z,33.03
2022-11-24T07:17:04.996Z,27.70
2022-11-24T07:19:32.291Z,37.90
2022-11-24T07:21:59.762Z,37.97
2022-11-24T07:24:27.173Z,39.35
2022-11-24T07:26:54.410Z,38.60
2022-11-24T07:29:21.412Z,38.75
2022-11-24T07:31:48.451Z,39.25
2022-11-24T07:34:15.387Z,42.58
2022-11-24T07:36:42.959Z,49.92
2022-11-24T07:39:09.912Z,50.47
2022-11-24T07:41:36.944Z,57.90
2022-11-24T07:44:04.016Z,51.67
2022-11-24T07:46:31.357Z,46.45
2022-11-24T07:48:58.556Z,40.63
2022-11-24T07:51:25.502Z,48.58
2022-11-24T07:53:52.463Z,47.65
2022-11-24T07:56:19.372Z,46.95
2022-11-24T07:58:52.492Z,41.10
2022-11-24T08:01:20.458Z,37.70
2022-11-24T08:03:48.753Z,39.65
2022-11-24T08:06:25.028Z,32.72
2022-11-24T08:08:53.748Z,46.42
2022-11-24T08:11:20.961Z,93.25
2022-11-24T08:13:48.148Z,88.72
2022-11-24T08:16:17.596Z,80.97
2022-11-24T08:18:49.910Z,73.60
2022-11-24T08:21:17.906Z,85.43
2022-11-24T08:23:44.927Z,77.90
2022-11-24T08:26:16.707Z,69.45
2022-11-24T08:28:44.913Z,55.95
2022-11-24T08:31:15.586Z,43.35
2022-11-24T08:33:43.036Z,35.55
2022-11-24T08:36:19.243Z,40.53
2022-11-24T08:38:46.808Z,37.22
2022-11-24T08:41:16.036Z,32.05
2022-11-24T08:43:43.484Z,33.08
2022-11-24T08:46:13.752Z,30.15
2022-11-24T08:48:41.733Z,28.92
2022-11-24T08:51:14.291Z,28.20
2022-11-24T08:53:43.069Z,22.50
2022-11-24T08:56:11.719Z,20.05
2022-11-24T08:58:39.522Z,20.92
2022-11-24T09:01:15.346Z,16.73
2022-11-24T09:03:50.132Z,18.65
2022-11-24T09:06:24.007Z,17.70
2022-11-24T09:08:55.530Z,19.90
2022-11-24T09:11:23.263Z,15.82
2022-11-24T09:13:51.270Z,20.45
2022-11-24T09:16:22.954Z,25.02
2022-11-24T09:18:56.747Z,19.67
2022-11-24T09:21:24.552Z,21.00
2022-11-24T09:23:53.373Z,17.95
2022-11-24T09:26:23.991Z,26.20
2022-11-24T09:28:54.611Z,22.67
2022-11-24T09:31:26.612Z,31.33
2022-11-24T09:33:54.518Z,26.35
2022-11-24T09:36:22.228Z,31.63
2022-11-24T09:38:49.542Z,25.67
2022-11-24T09:41:46.792Z,27.70
2022-11-24T09:44:34.664Z,28.88
2022-11-24T09:47:16.610Z,41.30
2022-11-24T09:50:11.847Z,31.05
2022-11-24T09:52:48.633Z,28.92
2022-11-24T09:55:31.702Z,30.48
2022-11-24T09:58:11.305Z,28.98
2022-11-24T10:00:38.473Z,32.33
2022-11-24T10:03:07.214Z,32.70
2022-11-24T10:05:36.214Z,19.17
2022-11-24T10:08:35.443Z,21.85
2022-11-24T10:11:07.687Z,17.83
2022-11-24T10:14:18.526Z,20.45
2022-11-24T10:17:08.276Z,32.97
2022-11-24T10:19:54.381Z,25.45
2022-11-24T10:22:55.888Z,32.47
2022-11-24T10:25:34.044Z,30.13
2022-11-24T10:28:09.969Z,28.35
2022-11-24T10:30:38.012Z,28.55
2022-11-24T10:33:18.833Z,30.02
2022-11-24T10:36:00.753Z,21.58
2022-11-24T10:38:40.872Z,25.23
2022-11-24T10:41:14.576Z,24.95
2022-11-24T10:43:43.174Z,27.05
2022-11-24T10:46:23.806Z,32.22
2022-11-24T10:49:15.318Z,27.63
2022-11-24T10:52:02.222Z,25.77
2022-11-24T10:54:29.380Z,34.20
2022-11-24T10:56:56.588Z,31.38
2022-11-24T10:59:39.499Z,31.27
2022-11-24T11:02:34.880Z,27.75
2022-11-24T11:05:42.586Z,32.53
2022-11-24T11:08:20.391Z,32.30
2022-11-24T11:10:50.313Z,31.15
2022-11-24T11:13:31.360Z,31.20
2022-11-24T11:15:59.561Z,37.90
2022-11-24T11:18:32.784Z,29.70
2022-11-24T11:21:02.585Z,28.33
2022-11-24T11:23:33.651Z,29.98
2022-11-24T11:26:25.037Z,31.35
2022-11-24T11:34:51.246Z,34.78
2022-11-24T11:37:20.107Z,31.67
2022-11-24T11:39:49.638Z,27.70
2022-11-24T11:43:00.590Z,27.02
2022-11-24T11:45:44.221Z,27.17
2022-11-24T11:48:27.055Z,29.67
2022-11-24T11:51:33.102Z,32.13
2022-11-24T11:54:18.877Z,30.90
2022-11-24T11:56:50.258Z,28.45
2022-11-24T11:59:23.569Z,28.48
2022-11-24T12:02:09.497Z,28.13
2022-11-24T12:05:00.913Z,28.65
2022-11-24T12:08:02.363Z,28.60
2022-11-24T12:10:36.298Z,26.13
2022-11-24T12:13:21.942Z,27.23
2022-11-24T12:15:59.597Z,25.52
2022-11-24T12:19:01.045Z,27.23
2022-11-24T12:21:47.891Z,35.40
2022-11-24T12:24:21.770Z,38.70
2022-11-24T12:27:04.884Z,32.50
2022-11-24T12:29:59.005Z,34.60
2022-11-24T12:32:44.979Z,32.72
2022-11-24T12:35:33.704Z,28.35
2022-11-24T12:38:19.554Z,30.33
2022-11-24T12:41:44.212Z,32.90
2022-11-24T12:44:31.690Z,33.47
2022-11-24T12:47:18.673Z,28.02
2022-11-24T12:50:19.168Z,28.23
2022-11-24T12:53:13.219Z,25.48
2022-11-24T12:55:41.723Z,33.83
2022-11-24T12:58:27.012Z,34.83
2022-11-24T13:00:59.177Z,24.92
2022-11-24T13:03:56.782Z,26.42
2022-11-24T13:06:36.568Z,29.42
2022-11-24T13:09:11.624Z,30.17
2022-11-24T13:11:45.015Z,26.80
2022-11-24T13:14:31.886Z,22.88
2022-11-24T13:19:49.770Z,24.42
2022-11-24T13:22:24.498Z,23.05
2022-11-24T13:25:13.535Z,24.27
2022-11-24T13:27:45.623Z,19.45
2022-11-24T13:30:44.708Z,22.02
2022-11-24T13:33:16.412Z,25.08
2022-11-24T13:36:04.615Z,23.02
2022-11-24T13:38:43.880Z,25.27
2022-11-24T13:41:32.869Z,22.25
2022-11-24T13:44:26.294Z,25.52
2022-11-24T13:47:06.128Z,24.35
2022-11-24T13:49:41.633Z,27.38
2022-11-24T13:52:39.622Z,29.15
2022-11-24T13:55:12.653Z,26.42
2022-11-24T13:57:47.029Z,26.33
2022-11-24T14:00:23.075Z,23.60
2022-11-24T14:02:57.580Z,22.77
2022-11-24T14:05:37.455Z,31.02
2022-11-24T14:08:07.595Z,31.70
2022-11-24T14:10:37.794Z,40.00
2022-11-24T14:13:36.956Z,46.47
2022-11-24T14:16:15.159Z,38.17
2022-11-24T14:18:44.755Z,51.35
2022-11-24T14:21:20.883Z,65.25
2022-11-24T14:24:12.948Z,48.50
2022-11-24T14:26:41.278Z,54.22
2022-11-24T14:29:14.205Z,54.70
2022-11-24T14:34:21.365Z,51.55
2022-11-24T14:36:49.467Z,42.53
2022-11-24T14:39:18.942Z,41.45
2022-11-24T14:42:03.599Z,38.47
2022-11-24T14:44:37.524Z,43.47
2022-11-24T14:47:18.717Z,44.65
2022-11-24T14:49:46.046Z,42.67
2022-11-24T14:52:16.754Z,46.72
2022-11-24T14:55:21.305Z,51.58
2022-11-24T14:57:48.938Z,49.55
2022-11-24T15:00:24.840Z,46.85
2022-11-24T15:03:02.732Z,46.88
2022-11-24T15:05:51.615Z,41.85
2022-11-24T15:08:19.024Z,43.95
2022-11-24T15:10:46.704Z,39.63
2022-11-24T15:13:24.017Z,46.42
2022-11-24T15:16:02.495Z,40.78
2022-11-24T15:18:43.580Z,41.22
2022-11-24T15:21:17.308Z,50.42
2022-11-24T15:24:06.224Z,52.95
2022-11-24T15:26:38.297Z,56.95
2022-11-24T15:29:08.710Z,52.30
2022-11-24T15:31:35.883Z,55.63
2022-11-24T15:34:02.879Z,51.22
2022-11-24T15:36:30.082Z,46.83
2022-11-24T15:38:57.324Z,51.08
2022-11-24T15:41:32.335Z,55.00
2022-11-24T15:43:59.506Z,48.45
2022-11-24T15:46:27.985Z,52.15
2022-11-24T15:48:55.626Z,57.17
2022-11-24T15:51:26.525Z,53.75
2022-11-24T15:54:00.815Z,59.97
2022-11-24T15:56:36.821Z,58.13
2022-11-24T15:59:04.692Z,57.88
2022-11-24T16:01:33.827Z,56.97
2022-11-24T16:04:01.868Z,51.33
2022-11-24T16:06:28.993Z,57.22
2022-11-24T16:08:56.114Z,54.75
2022-11-24T16:11:23.493Z,71.22
2022-11-24T16:13:53.414Z,59.85
2022-11-24T16:16:22.215Z,67.65
2022-11-24T16:18:49.365Z,64.90
2022-11-24T16:21:16.426Z,59.58
2022-11-24T16:23:43.601Z,64.15
2022-11-24T16:26:10.818Z,68.55
2022-11-24T16:28:37.771Z,65.93
2022-11-24T16:31:04.960Z,56.08
2022-11-24T16:33:32.139Z,60.65
2022-11-24T16:35:59.209Z,57.05
2022-11-24T16:38:26.243Z,61.08
2022-11-24T16:40:56.973Z,61.85
2022-11-24T16:43:27.077Z,60.92
2022-11-24T16:46:09.153Z,48.50
2022-11-24T16:48:36.967Z,44.03
2022-11-24T16:51:07.774Z,46.15
2022-11-24T16:53:34.957Z,38.53
2022-11-24T16:56:02.171Z,40.45
2022-11-24T16:58:29.164Z,39.63
2022-11-24T17:01:02.418Z,41.63
2022-11-24T17:03:33.505Z,43.45
2022-11-24T17:06:01.235Z,46.13
2022-11-24T17:08:32.153Z,48.58
2022-11-24T17:11:09.926Z,93.60
2022-11-24T17:13:37.478Z,87.45
2022-11-24T17:16:09.727Z,55.00
2022-11-24T17:18:38.497Z,62.57
2022-11-24T17:21:09.864Z,56.67
2022-11-24T17:23:37.641Z,59.63
2022-11-24T17:26:06.694Z,61.53
2022-11-24T17:28:34.596Z,59.03
2022-11-24T17:31:29.900Z,58.30
2022-11-24T17:33:58.881Z,46.28
2022-11-24T17:36:26.878Z,45.10
2022-11-24T17:38:54.185Z,42.83
2022-11-24T17:41:22.201Z,40.45
2022-11-24T17:43:53.776Z,41.20
2022-11-24T17:46:20.763Z,46.88
2022-11-24T17:48:47.956Z,40.95
2022-11-24T17:51:17.407Z,52.38
2022-11-24T17:53:46.605Z,53.00
2022-11-24T17:56:18.789Z,62.88
2022-11-24T17:58:45.739Z,58.60
2022-11-24T18:01:13.406Z,46.80
2022-11-24T18:03:41.349Z,41.33
2022-11-24T18:06:10.933Z,45.88
2022-11-24T18:08:39.868Z,34.33
2022-11-24T18:11:09.273Z,37.90
2022-11-24T18:16:24.585Z,37.97
2022-11-24T18:19:14.920Z,38.92
2022-11-24T18:21:44.880Z,37.05
2022-11-24T18:24:12.757Z,37.60
2022-11-24T18:26:41.731Z,39.53
2022-11-24T18:29:09.379Z,41.53
2022-11-24T18:31:37.048Z,40.42
2022-11-24T18:34:05.986Z,38.60
2022-11-24T18:36:33.394Z,37.45
2022-11-24T18:39:08.851Z,41.25
2022-11-24T18:41:36.052Z,39.97
2022-11-24T18:44:03.413Z,37.85
2022-11-24T18:46:30.426Z,29.33
2022-11-24T18:48:57.333Z,29.25
2022-11-24T18:51:24.369Z,27.13
2022-11-24T18:53:58.145Z,34.35
2022-11-24T18:56:26.021Z,76.82
2022-11-24T18:58:54.014Z,111.70
2022-11-24T19:01:26.996Z,118.45
2022-11-24T19:03:56.502Z,128.38
2022-11-24T19:06:34.598Z,119.70
2022-11-24T19:09:07.337Z,106.88
2022-11-24T19:11:37.666Z,113.55
2022-11-24T19:14:06.592Z,101.07
2022-11-24T19:16:34.243Z,94.43
2022-11-24T19:19:03.083Z,99.22
2022-11-24T19:21:38.504Z,77.10
2022-11-24T19:24:10.454Z,72.80
2022-11-24T19:26:38.329Z,63.85
2022-11-24T19:29:06.977Z,50.92
2022-11-24T19:31:35.123Z,40.08
2022-11-24T19:34:03.117Z,35.08
2022-11-24T19:36:30.607Z,33.80
2022-11-24T19:38:58.391Z,36.17
2022-11-24T19:41:30.464Z,34.72
2022-11-24T19:43:58.773Z,39.40
2022-11-24T19:46:28.003Z,35.42
2022-11-24T19:48:57.304Z,33.03
2022-11-24T19:51:27.646Z,40.78
2022-11-24T19:53:54.872Z,32.33
2022-11-24T19:56:27.142Z,39.90
2022-11-24T19:58:54.741Z,37.53
2022-11-24T20:01:26.940Z,37.67
2022-11-24T20:04:02.353Z,30.60
2022-11-24T20:06:31.430Z,23.05
2022-11-24T20:09:00.571Z,28.20
2022-11-24T20:11:28.602Z,43.28
2022-11-24T20:13:56.314Z,72.22
2022-11-24T20:16:26.763Z,90.28
2022-11-24T20:18:59.449Z,96.03
2022-11-24T20:21:34.405Z,118.30
2022-11-24T20:24:06.231Z,134.80
2022-11-24T20:26:36.046Z,159.25
2022-11-24T20:29:04.184Z,166.23
2022-11-24T20:31:36.953Z,159.48
2022-11-24T20:34:06.058Z,155.13
2022-11-24T20:36:35.490Z,115.75
2022-11-24T20:39:07.971Z,90.95
2022-11-24T20:41:37.285Z,94.53
2022-11-24T20:44:10.751Z,101.57
2022-11-24T20:46:39.846Z,82.68
2022-11-24T20:49:09.085Z,71.53
2022-11-24T20:51:39.816Z,72.70
2022-11-24T20:54:08.917Z,78.63
2022-11-24T20:56:38.313Z,93.40
2022-11-24T20:59:05.615Z,84.55
2022-11-24T21:01:35.610Z,85.82
2022-11-24T21:04:03.419Z,88.78
2022-11-24T21:06:30.862Z,97.68
2022-11-24T21:09:03.462Z,108.18
2022-11-24T21:13:59.084Z,110.32
2022-11-24T21:16:28.397Z,129.80
2022-11-24T21:18:58.038Z,134.48
2022-11-24T21:21:27.842Z,142.55
2022-11-24T21:23:54.781Z,147.95
2022-11-24T21:26:21.738Z,138.75
2022-11-24T21:28:48.727Z,124.47
2022-11-24T21:31:18.710Z,134.95
2022-11-24T21:33:50.831Z,109.18
2022-11-24T21:36:20.435Z,133.77
2022-11-24T21:38:55.575Z,112.88
2022-11-24T21:41:23.862Z,115.80
2022-11-24T21:43:52.021Z,115.72
2022-11-24T21:46:19.255Z,121.65
2022-11-24T21:48:46.315Z,120.18
2022-11-24T21:51:16.105Z,108.70
2022-11-24T21:53:46.863Z,92.30
2022-11-24T21:56:19.229Z,91.82
2022-11-24T21:58:51.175Z,104.88
2022-11-24T22:01:20.493Z,105.00
2022-11-24T22:03:47.640Z,96.10
2022-11-24T22:06:15.971Z,101.95
2022-11-24T22:08:42.903Z,104.28
2022-11-24T22:11:16.020Z,95.07
2022-11-24T22:13:44.284Z,111.20
2022-11-24T22:16:13.760Z,113.00
2022-11-24T22:18:42.209Z,119.70
2022-11-24T22:21:12.616Z,114.65
2022-11-24T22:23:39.792Z,110.47
2022-11-24T22:26:12.758Z,108.32
2022-11-24T22:28:40.373Z,114.10
2022-11-24T22:31:19.404Z,108.47
2022-11-24T22:33:46.826Z,89.95
2022-11-24T22:36:14.978Z,98.75
2022-11-24T22:38:42.406Z,103.75
2022-11-24T22:41:12.087Z,81.88
2022-11-24T22:43:40.219Z,91.82
2022-11-24T22:46:18.853Z,76.55
2022-11-24T22:48:47.799Z,85.47
2022-11-24T22:51:17.660Z,62.78
2022-11-24T22:53:52.991Z,86.50
2022-11-24T22:56:20.527Z,88.30
2022-11-24T22:58:47.688Z,82.13
2022-11-24T23:01:17.457Z,93.80
2022-11-24T23:03:45.025Z,100.10
2022-11-24T23:06:14.279Z,89.55
2022-11-24T23:08:41.588Z,85.20
2022-11-24T23:11:11.800Z,66.05
2022-11-24T23:13:39.087Z,73.32
2022-11-24T23:16:09.927Z,79.45
2022-11-24T23:18:36.965Z,71.65
2022-11-24T23:21:18.514Z,60.83
2022-11-24T23:23:45.909Z,60.78
2022-11-24T23:26:15.602Z,64.68
2022-11-24T23:28:43.441Z,67.03
2022-11-24T23:31:15.490Z,60.65
2022-11-24T23:33:43.308Z,60.92
2022-11-24T23:36:14.887Z,76.40
2022-11-24T23:38:42.618Z,75.82
2022-11-24T23:41:12.368Z,95.13
2022-11-24T23:43:41.764Z,75.03
2022-11-24T23:46:14.455Z,66.22
2022-11-24T23:48:41.790Z,66.63
2022-11-24T23:51:16.007Z,52.20
2022-11-24T23:53:44.047Z,45.70
2022-11-24T23:56:27.312Z,50.58
2022-11-24T23:58:54.369Z,43.00
